sensor_id;sensor_type;location;lat;lon;timestamp;P1;durP1;ratioP1;P2;durP2;ratioP2
48993;SDS011;34804;49.214;12.276;2023-09-19T00:00:38;3.22;;;1.42;;
48993;SDS011;34804;49.214;12.276;2023-09-19T00:03:07;5.10;;;1.77;;
48993;SDS011;34804;49.214;12.276;2023-09-19T00:05:36;4.15;;;1.52;;
48993;SDS011;34804;49.214;12.276;2023-09-19T00:08:05;3.17;;;1.33;;
48993;SDS011;34804;49.214;12.276;2023-09-19T00:10:33;3.70;;;1.48;;
48993;SDS011;34804;49.214;12.276;2023-09-19T00:13:03;7.15;;;1.60;;
48993;SDS011;34804;49.214;12.276;2023-09-19T00:15:37;6.15;;;1.70;;
48993;SDS011;34804;49.214;12.276;2023-09-19T00:18:06;4.75;;;1.60;;
48993;SDS011;34804;49.214;12.276;2023-09-19T00:20:35;5.13;;;1.55;;
48993;SDS011;34804;49.214;12.276;2023-09-19T00:23:03;3.35;;;1.50;;
48993;SDS011;34804;49.214;12.276;2023-09-19T00:25:30;3.67;;;1.90;;
48993;SDS011;34804;49.214;12.276;2023-09-19T00:28:01;4.47;;;1.60;;
48993;SDS011;34804;49.214;12.276;2023-09-19T00:30:29;3.60;;;1.30;;
48993;SDS011;34804;49.214;12.276;2023-09-19T00:32:57;4.57;;;1.50;;
48993;SDS011;34804;49.214;12.276;2023-09-19T00:35:24;4.25;;;1.60;;
48993;SDS011;34804;49.214;12.276;2023-09-19T00:37:51;4.07;;;1.42;;
48993;SDS011;34804;49.214;12.276;2023-09-19T00:40:18;4.07;;;1.45;;
48993;SDS011;34804;49.214;12.276;2023-09-19T00:42:48;4.15;;;1.60;;
48993;SDS011;34804;49.214;12.276;2023-09-19T00:45:16;3.63;;;1.52;;
48993;SDS011;34804;49.214;12.276;2023-09-19T00:47:45;3.83;;;1.50;;
48993;SDS011;34804;49.214;12.276;2023-09-19T00:50:18;3.97;;;1.23;;
48993;SDS011;34804;49.214;12.276;2023-09-19T00:52:50;7.00;;;1.58;;
48993;SDS011;34804;49.214;12.276;2023-09-19T00:55:22;3.67;;;1.45;;
48993;SDS011;34804;49.214;12.276;2023-09-19T00:57:50;3.90;;;1.35;;
48993;SDS011;34804;49.214;12.276;2023-09-19T01:00:19;4.00;;;1.75;;
48993;SDS011;34804;49.214;12.276;2023-09-19T01:02:47;6.03;;;1.77;;
48993;SDS011;34804;49.214;12.276;2023-09-19T01:05:15;5.05;;;1.70;;
48993;SDS011;34804;49.214;12.276;2023-09-19T01:07:42;3.67;;;1.52;;
48993;SDS011;34804;49.214;12.276;2023-09-19T01:10:15;5.15;;;1.80;;
48993;SDS011;34804;49.214;12.276;2023-09-19T01:15:55;5.75;;;1.60;;
48993;SDS011;34804;49.214;12.276;2023-09-19T01:21:29;5.25;;;1.58;;
48993;SDS011;34804;49.214;12.276;2023-09-19T01:24:34;5.47;;;1.70;;
48993;SDS011;34804;49.214;12.276;2023-09-19T01:29:49;4.05;;;1.70;;
48993;SDS011;34804;49.214;12.276;2023-09-19T01:32:17;5.57;;;1.70;;
48993;SDS011;34804;49.214;12.276;2023-09-19T01:34:50;4.45;;;1.60;;
48993;SDS011;34804;49.214;12.276;2023-09-19T01:37:24;5.75;;;1.60;;
48993;SDS011;34804;49.214;12.276;2023-09-19T01:39:59;6.45;;;1.90;;
48993;SDS011;34804;49.214;12.276;2023-09-19T01:45:12;4.63;;;1.42;;
48993;SDS011;34804;49.214;12.276;2023-09-19T01:47:52;4.63;;;1.48;;
48993;SDS011;34804;49.214;12.276;2023-09-19T01:50:37;4.05;;;1.58;;
48993;SDS011;34804;49.214;12.276;2023-09-19T01:53:13;6.30;;;1.70;;
48993;SDS011;34804;49.214;12.276;2023-09-19T01:55:57;4.32;;;1.77;;
48993;SDS011;34804;49.214;12.276;2023-09-19T01:58:35;6.45;;;1.70;;
48993;SDS011;34804;49.214;12.276;2023-09-19T02:01:09;4.00;;;1.52;;
48993;SDS011;34804;49.214;12.276;2023-09-19T02:03:41;4.40;;;1.80;;
48993;SDS011;34804;49.214;12.276;2023-09-19T02:06:14;4.57;;;2.08;;
48993;SDS011;34804;49.214;12.276;2023-09-19T02:08:42;4.95;;;1.92;;
48993;SDS011;34804;49.214;12.276;2023-09-19T02:11:08;6.25;;;1.73;;
48993;SDS011;34804;49.214;12.276;2023-09-19T02:13:35;5.28;;;2.00;;
48993;SDS011;34804;49.214;12.276;2023-09-19T02:16:03;5.07;;;1.80;;
48993;SDS011;34804;49.214;12.276;2023-09-19T02:18:33;6.28;;;1.80;;
48993;SDS011;34804;49.214;12.276;2023-09-19T02:21:03;4.00;;;1.60;;
48993;SDS011;34804;49.214;12.276;2023-09-19T02:23:30;4.63;;;1.85;;
48993;SDS011;34804;49.214;12.276;2023-09-19T02:25:57;3.63;;;1.75;;
48993;SDS011;34804;49.214;12.276;2023-09-19T02:28:24;5.80;;;1.73;;
48993;SDS011;34804;49.214;12.276;2023-09-19T02:30:56;8.05;;;2.00;;
48993;SDS011;34804;49.214;12.276;2023-09-19T02:33:23;5.75;;;1.90;;
48993;SDS011;34804;49.214;12.276;2023-09-19T02:35:54;5.75;;;1.98;;
48993;SDS011;34804;49.214;12.276;2023-09-19T02:38:24;4.63;;;1.70;;
48993;SDS011;34804;49.214;12.276;2023-09-19T02:40:52;7.68;;;1.90;;
48993;SDS011;34804;49.214;12.276;2023-09-19T02:43:19;6.00;;;1.95;;
48993;SDS011;34804;49.214;12.276;2023-09-19T02:45:46;6.32;;;1.80;;
48993;SDS011;34804;49.214;12.276;2023-09-19T02:48:16;5.82;;;1.98;;
48993;SDS011;34804;49.214;12.276;2023-09-19T02:50:45;4.38;;;1.67;;
48993;SDS011;34804;49.214;12.276;2023-09-19T02:53:12;4.03;;;1.40;;
48993;SDS011;34804;49.214;12.276;2023-09-19T02:55:40;6.18;;;2.00;;
48993;SDS011;34804;49.214;12.276;2023-09-19T02:58:07;5.47;;;1.70;;
48993;SDS011;34804;49.214;12.276;2023-09-19T03:00:41;3.70;;;1.60;;
48993;SDS011;34804;49.214;12.276;2023-09-19T03:05:42;4.35;;;1.70;;
48993;SDS011;34804;49.214;12.276;2023-09-19T03:08:14;7.57;;;1.88;;
48993;SDS011;34804;49.214;12.276;2023-09-19T03:10:46;4.38;;;1.60;;
48993;SDS011;34804;49.214;12.276;2023-09-19T03:13:14;6.88;;;2.15;;
48993;SDS011;34804;49.214;12.276;2023-09-19T03:15:42;5.10;;;1.88;;
48993;SDS011;34804;49.214;12.276;2023-09-19T03:18:17;6.13;;;1.50;;
48993;SDS011;34804;49.214;12.276;2023-09-19T03:20:44;3.67;;;1.70;;
48993;SDS011;34804;49.214;12.276;2023-09-19T03:23:21;4.70;;;1.98;;
48993;SDS011;34804;49.214;12.276;2023-09-19T03:25:48;5.82;;;2.47;;
48993;SDS011;34804;49.214;12.276;2023-09-19T03:28:15;4.20;;;1.50;;
48993;SDS011;34804;49.214;12.276;2023-09-19T03:30:42;4.03;;;1.67;;
48993;SDS011;34804;49.214;12.276;2023-09-19T03:33:09;6.10;;;1.90;;
48993;SDS011;34804;49.214;12.276;2023-09-19T03:35:39;4.35;;;1.80;;
48993;SDS011;34804;49.214;12.276;2023-09-19T03:38:06;4.18;;;1.55;;
48993;SDS011;34804;49.214;12.276;2023-09-19T03:40:33;3.95;;;1.73;;
48993;SDS011;34804;49.214;12.276;2023-09-19T03:43:00;6.65;;;2.30;;
48993;SDS011;34804;49.214;12.276;2023-09-19T03:45:27;4.85;;;1.92;;
48993;SDS011;34804;49.214;12.276;2023-09-19T03:47:54;4.53;;;1.70;;
48993;SDS011;34804;49.214;12.276;2023-09-19T03:50:21;4.50;;;1.73;;
48993;SDS011;34804;49.214;12.276;2023-09-19T03:52:48;5.70;;;1.88;;
48993;SDS011;34804;49.214;12.276;2023-09-19T03:55:15;5.20;;;2.00;;
48993;SDS011;34804;49.214;12.276;2023-09-19T03:57:41;6.07;;;2.03;;
48993;SDS011;34804;49.214;12.276;2023-09-19T04:00:08;5.13;;;1.83;;
48993;SDS011;34804;49.214;12.276;2023-09-19T04:02:38;6.72;;;1.80;;
48993;SDS011;34804;49.214;12.276;2023-09-19T04:05:06;5.32;;;1.85;;
48993;SDS011;34804;49.214;12.276;2023-09-19T04:07:33;3.70;;;1.70;;
48993;SDS011;34804;49.214;12.276;2023-09-19T04:10:01;5.13;;;2.05;;
48993;SDS011;34804;49.214;12.276;2023-09-19T04:12:30;4.82;;;2.00;;
48993;SDS011;34804;49.214;12.276;2023-09-19T04:14:57;4.07;;;1.70;;
48993;SDS011;34804;49.214;12.276;2023-09-19T04:17:24;5.85;;;2.08;;
48993;SDS011;34804;49.214;12.276;2023-09-19T04:19:51;6.80;;;1.80;;
48993;SDS011;34804;49.214;12.276;2023-09-19T04:22:18;4.60;;;1.55;;
48993;SDS011;34804;49.214;12.276;2023-09-19T04:24:45;4.88;;;1.90;;
48993;SDS011;34804;49.214;12.276;2023-09-19T04:27:11;6.00;;;1.90;;
48993;SDS011;34804;49.214;12.276;2023-09-19T04:29:40;5.60;;;1.60;;
48993;SDS011;34804;49.214;12.276;2023-09-19T04:32:10;5.85;;;1.88;;
48993;SDS011;34804;49.214;12.276;2023-09-19T04:34:39;3.63;;;1.80;;
48993;SDS011;34804;49.214;12.276;2023-09-19T04:37:06;5.40;;;1.70;;
48993;SDS011;34804;49.214;12.276;2023-09-19T04:39:33;4.90;;;2.00;;
48993;SDS011;34804;49.214;12.276;2023-09-19T04:42:00;3.55;;;1.70;;
48993;SDS011;34804;49.214;12.276;2023-09-19T04:44:27;3.67;;;1.65;;
48993;SDS011;34804;49.214;12.276;2023-09-19T04:46:54;4.55;;;1.70;;
48993;SDS011;34804;49.214;12.276;2023-09-19T04:49:22;5.35;;;1.70;;
48993;SDS011;34804;49.214;12.276;2023-09-19T04:51:49;7.50;;;1.67;;
48993;SDS011;34804;49.214;12.276;2023-09-19T04:54:16;8.25;;;1.60;;
48993;SDS011;34804;49.214;12.276;2023-09-19T04:56:44;7.20;;;2.35;;
48993;SDS011;34804;49.214;12.276;2023-09-19T04:59:11;6.55;;;1.33;;
48993;SDS011;34804;49.214;12.276;2023-09-19T05:01:38;5.70;;;1.90;;
48993;SDS011;34804;49.214;12.276;2023-09-19T05:04:05;5.13;;;1.77;;
48993;SDS011;34804;49.214;12.276;2023-09-19T05:06:32;4.80;;;1.60;;
48993;SDS011;34804;49.214;12.276;2023-09-19T05:09:00;4.88;;;1.90;;
48993;SDS011;34804;49.214;12.276;2023-09-19T05:11:27;5.50;;;1.70;;
48993;SDS011;34804;49.214;12.276;2023-09-19T05:13:56;3.13;;;1.35;;
48993;SDS011;34804;49.214;12.276;2023-09-19T05:16:23;4.50;;;1.75;;
48993;SDS011;34804;49.214;12.276;2023-09-19T05:18:50;5.07;;;2.38;;
48993;SDS011;34804;49.214;12.276;2023-09-19T05:21:18;4.25;;;1.60;;
48993;SDS011;34804;49.214;12.276;2023-09-19T05:23:45;3.72;;;1.55;;
48993;SDS011;34804;49.214;12.276;2023-09-19T05:26:12;4.22;;;1.70;;
48993;SDS011;34804;49.214;12.276;2023-09-19T05:28:42;4.05;;;1.50;;
48993;SDS011;34804;49.214;12.276;2023-09-19T05:31:09;3.63;;;1.58;;
48993;SDS011;34804;49.214;12.276;2023-09-19T05:33:36;4.97;;;1.55;;
48993;SDS011;34804;49.214;12.276;2023-09-19T05:36:03;4.18;;;1.42;;
48993;SDS011;34804;49.214;12.276;2023-09-19T05:38:30;5.38;;;1.65;;
48993;SDS011;34804;49.214;12.276;2023-09-19T05:40:58;5.90;;;1.70;;
48993;SDS011;34804;49.214;12.276;2023-09-19T05:43:25;6.25;;;1.50;;
48993;SDS011;34804;49.214;12.276;2023-09-19T05:45:53;4.15;;;1.63;;
48993;SDS011;34804;49.214;12.276;2023-09-19T05:48:22;6.85;;;1.77;;
48993;SDS011;34804;49.214;12.276;2023-09-19T05:50:49;4.10;;;1.50;;
48993;SDS011;34804;49.214;12.276;2023-09-19T05:53:16;6.45;;;1.50;;
48993;SDS011;34804;49.214;12.276;2023-09-19T05:55:44;4.43;;;1.70;;
48993;SDS011;34804;49.214;12.276;2023-09-19T05:58:11;5.00;;;1.40;;
48993;SDS011;34804;49.214;12.276;2023-09-19T06:00:43;3.08;;;1.30;;
48993;SDS011;34804;49.214;12.276;2023-09-19T06:03:11;3.67;;;1.63;;
48993;SDS011;34804;49.214;12.276;2023-09-19T06:05:38;5.75;;;1.80;;
48993;SDS011;34804;49.214;12.276;2023-09-19T06:08:05;6.72;;;1.50;;
48993;SDS011;34804;49.214;12.276;2023-09-19T06:10:34;4.05;;;1.65;;
48993;SDS011;34804;49.214;12.276;2023-09-19T06:13:02;6.10;;;1.60;;
48993;SDS011;34804;49.214;12.276;2023-09-19T06:15:31;5.18;;;1.63;;
48993;SDS011;34804;49.214;12.276;2023-09-19T06:17:59;3.80;;;1.58;;
48993;SDS011;34804;49.214;12.276;2023-09-19T06:20:28;8.70;;;1.60;;
48993;SDS011;34804;49.214;12.276;2023-09-19T06:22:56;6.03;;;1.83;;
48993;SDS011;34804;49.214;12.276;2023-09-19T06:25:23;6.80;;;1.98;;
48993;SDS011;34804;49.214;12.276;2023-09-19T06:27:53;3.83;;;1.52;;
48993;SDS011;34804;49.214;12.276;2023-09-19T06:30:21;5.78;;;2.20;;
48993;SDS011;34804;49.214;12.276;2023-09-19T06:32:58;4.70;;;1.60;;
48993;SDS011;34804;49.214;12.276;2023-09-19T06:35:28;3.28;;;1.48;;
48993;SDS011;34804;49.214;12.276;2023-09-19T06:37:59;5.20;;;1.83;;
48993;SDS011;34804;49.214;12.276;2023-09-19T06:40:29;4.88;;;1.88;;
48993;SDS011;34804;49.214;12.276;2023-09-19T06:42:57;3.50;;;1.23;;
48993;SDS011;34804;49.214;12.276;2023-09-19T06:45:24;4.50;;;1.67;;
48993;SDS011;34804;49.214;12.276;2023-09-19T06:47:53;3.42;;;1.30;;
48993;SDS011;34804;49.214;12.276;2023-09-19T06:50:25;2.85;;;1.45;;
48993;SDS011;34804;49.214;12.276;2023-09-19T06:52:53;3.33;;;1.52;;
48993;SDS011;34804;49.214;12.276;2023-09-19T06:55:21;5.05;;;1.50;;
48993;SDS011;34804;49.214;12.276;2023-09-19T06:57:51;4.20;;;1.15;;
48993;SDS011;34804;49.214;12.276;2023-09-19T07:00:21;5.03;;;1.45;;
48993;SDS011;34804;49.214;12.276;2023-09-19T07:02:58;5.38;;;1.40;;
48993;SDS011;34804;49.214;12.276;2023-09-19T07:05:28;3.08;;;1.23;;
48993;SDS011;34804;49.214;12.276;2023-09-19T07:07:55;2.70;;;1.30;;
48993;SDS011;34804;49.214;12.276;2023-09-19T07:10:22;4.05;;;1.25;;
48993;SDS011;34804;49.214;12.276;2023-09-19T07:15:29;3.83;;;1.40;;
48993;SDS011;34804;49.214;12.276;2023-09-19T07:18:02;3.38;;;1.00;;
48993;SDS011;34804;49.214;12.276;2023-09-19T07:20:29;4.55;;;1.27;;
48993;SDS011;34804;49.214;12.276;2023-09-19T07:22:59;2.78;;;1.23;;
48993;SDS011;34804;49.214;12.276;2023-09-19T07:25:27;5.95;;;1.58;;
48993;SDS011;34804;49.214;12.276;2023-09-19T07:27:55;3.17;;;1.25;;
48993;SDS011;34804;49.214;12.276;2023-09-19T07:30:23;2.47;;;1.05;;
48993;SDS011;34804;49.214;12.276;2023-09-19T07:32:49;4.25;;;1.52;;
48993;SDS011;34804;49.214;12.276;2023-09-19T07:35:16;4.68;;;1.20;;
48993;SDS011;34804;49.214;12.276;2023-09-19T07:37:45;2.97;;;1.00;;
48993;SDS011;34804;49.214;12.276;2023-09-19T07:40:17;5.97;;;1.60;;
48993;SDS011;34804;49.214;12.276;2023-09-19T07:42:45;3.67;;;1.17;;
48993;SDS011;34804;49.214;12.276;2023-09-19T07:45:13;3.22;;;1.30;;
48993;SDS011;34804;49.214;12.276;2023-09-19T07:47:44;4.65;;;1.50;;
48993;SDS011;34804;49.214;12.276;2023-09-19T07:50:15;4.90;;;1.60;;
48993;SDS011;34804;49.214;12.276;2023-09-19T07:52:49;5.30;;;1.30;;
48993;SDS011;34804;49.214;12.276;2023-09-19T07:55:20;3.25;;;1.20;;
48993;SDS011;34804;49.214;12.276;2023-09-19T07:57:50;3.25;;;1.20;;
48993;SDS011;34804;49.214;12.276;2023-09-19T08:00:18;3.70;;;1.20;;
48993;SDS011;34804;49.214;12.276;2023-09-19T08:02:45;4.03;;;1.50;;
48993;SDS011;34804;49.214;12.276;2023-09-19T08:05:16;3.47;;;1.35;;
48993;SDS011;34804;49.214;12.276;2023-09-19T08:07:44;4.95;;;1.30;;
48993;SDS011;34804;49.214;12.276;2023-09-19T08:10:15;3.17;;;1.15;;
48993;SDS011;34804;49.214;12.276;2023-09-19T08:12:42;3.45;;;1.48;;
48993;SDS011;34804;49.214;12.276;2023-09-19T08:15:13;3.38;;;1.40;;
48993;SDS011;34804;49.214;12.276;2023-09-19T08:17:41;4.13;;;1.15;;
48993;SDS011;34804;49.214;12.276;2023-09-19T08:20:09;2.95;;;1.23;;
48993;SDS011;34804;49.214;12.276;2023-09-19T08:22:43;4.38;;;1.30;;
48993;SDS011;34804;49.214;12.276;2023-09-19T08:25:14;3.28;;;1.20;;
48993;SDS011;34804;49.214;12.276;2023-09-19T08:27:50;3.60;;;1.40;;
48993;SDS011;34804;49.214;12.276;2023-09-19T08:30:18;2.67;;;1.05;;
48993;SDS011;34804;49.214;12.276;2023-09-19T08:32:51;3.70;;;1.33;;
48993;SDS011;34804;49.214;12.276;2023-09-19T08:35:23;4.20;;;1.30;;
48993;SDS011;34804;49.214;12.276;2023-09-19T08:37:50;3.28;;;1.25;;
48993;SDS011;34804;49.214;12.276;2023-09-19T08:40:17;4.13;;;1.48;;
48993;SDS011;34804;49.214;12.276;2023-09-19T08:42:51;3.35;;;1.20;;
48993;SDS011;34804;49.214;12.276;2023-09-19T08:45:21;6.15;;;1.50;;
48993;SDS011;34804;49.214;12.276;2023-09-19T08:50:40;4.32;;;1.42;;
48993;SDS011;34804;49.214;12.276;2023-09-19T08:53:31;2.28;;;0.98;;
48993;SDS011;34804;49.214;12.276;2023-09-19T08:56:01;2.72;;;1.10;;
48993;SDS011;34804;49.214;12.276;2023-09-19T08:58:31;4.55;;;1.30;;
48993;SDS011;34804;49.214;12.276;2023-09-19T09:01:07;2.53;;;1.13;;
48993;SDS011;34804;49.214;12.276;2023-09-19T09:03:36;2.50;;;1.13;;
48993;SDS011;34804;49.214;12.276;2023-09-19T09:06:07;5.80;;;1.50;;
48993;SDS011;34804;49.214;12.276;2023-09-19T09:08:37;4.45;;;1.15;;
48993;SDS011;34804;49.214;12.276;2023-09-19T09:11:06;3.92;;;1.30;;
48993;SDS011;34804;49.214;12.276;2023-09-19T09:13:35;3.00;;;1.00;;
48993;SDS011;34804;49.214;12.276;2023-09-19T09:16:04;3.70;;;1.00;;
48993;SDS011;34804;49.214;12.276;2023-09-19T09:18:31;3.95;;;1.42;;
48993;SDS011;34804;49.214;12.276;2023-09-19T09:20:58;5.65;;;1.10;;
48993;SDS011;34804;49.214;12.276;2023-09-19T09:23:26;3.67;;;1.20;;
48993;SDS011;34804;49.214;12.276;2023-09-19T09:25:55;4.30;;;1.10;;
48993;SDS011;34804;49.214;12.276;2023-09-19T09:28:24;4.70;;;1.35;;
48993;SDS011;34804;49.214;12.276;2023-09-19T09:30:54;4.97;;;1.45;;
48993;SDS011;34804;49.214;12.276;2023-09-19T09:33:21;2.97;;;1.27;;
48993;SDS011;34804;49.214;12.276;2023-09-19T09:35:50;3.10;;;1.10;;
48993;SDS011;34804;49.214;12.276;2023-09-19T09:38:20;2.20;;;1.00;;
48993;SDS011;34804;49.214;12.276;2023-09-19T09:40:52;3.80;;;1.15;;
48993;SDS011;34804;49.214;12.276;2023-09-19T09:46:09;2.85;;;1.15;;
48993;SDS011;34804;49.214;12.276;2023-09-19T09:51:48;3.80;;;1.10;;
48993;SDS011;34804;49.214;12.276;2023-09-19T09:54:28;2.92;;;1.30;;
48993;SDS011;34804;49.214;12.276;2023-09-19T09:57:08;2.90;;;1.00;;
48993;SDS011;34804;49.214;12.276;2023-09-19T09:59:52;4.15;;;1.20;;
48993;SDS011;34804;49.214;12.276;2023-09-19T10:02:29;4.38;;;1.35;;
48993;SDS011;34804;49.214;12.276;2023-09-19T10:07:56;2.78;;;1.02;;
48993;SDS011;34804;49.214;12.276;2023-09-19T10:10:40;4.35;;;1.40;;
48993;SDS011;34804;49.214;12.276;2023-09-19T10:13:08;3.83;;;1.40;;
48993;SDS011;34804;49.214;12.276;2023-09-19T10:15:43;2.50;;;1.08;;
48993;SDS011;34804;49.214;12.276;2023-09-19T10:18:20;4.55;;;1.20;;
48993;SDS011;34804;49.214;12.276;2023-09-19T10:20:48;2.95;;;1.27;;
48993;SDS011;34804;49.214;12.276;2023-09-19T10:23:18;4.43;;;1.17;;
48993;SDS011;34804;49.214;12.276;2023-09-19T10:25:50;3.35;;;1.20;;
48993;SDS011;34804;49.214;12.276;2023-09-19T10:28:19;4.32;;;1.50;;
48993;SDS011;34804;49.214;12.276;2023-09-19T10:30:50;3.22;;;1.25;;
48993;SDS011;34804;49.214;12.276;2023-09-19T10:33:22;3.30;;;1.33;;
48993;SDS011;34804;49.214;12.276;2023-09-19T10:35:53;2.72;;;1.20;;
48993;SDS011;34804;49.214;12.276;2023-09-19T10:38:23;4.28;;;1.20;;
48993;SDS011;34804;49.214;12.276;2023-09-19T10:40:51;2.67;;;1.27;;
48993;SDS011;34804;49.214;12.276;2023-09-19T10:43:20;3.28;;;1.25;;
48993;SDS011;34804;49.214;12.276;2023-09-19T10:45:51;3.28;;;1.10;;
48993;SDS011;34804;49.214;12.276;2023-09-19T10:48:21;3.45;;;1.23;;
48993;SDS011;34804;49.214;12.276;2023-09-19T10:51:02;4.32;;;1.17;;
48993;SDS011;34804;49.214;12.276;2023-09-19T10:53:41;2.67;;;1.10;;
48993;SDS011;34804;49.214;12.276;2023-09-19T10:56:16;3.92;;;1.23;;
48993;SDS011;34804;49.214;12.276;2023-09-19T10:58:49;2.72;;;1.05;;
48993;SDS011;34804;49.214;12.276;2023-09-19T11:01:18;3.08;;;1.20;;
48993;SDS011;34804;49.214;12.276;2023-09-19T11:03:47;3.33;;;1.10;;
48993;SDS011;34804;49.214;12.276;2023-09-19T11:06:16;3.60;;;1.30;;
48993;SDS011;34804;49.214;12.276;2023-09-19T11:08:51;2.30;;;1.08;;
48993;SDS011;34804;49.214;12.276;2023-09-19T11:30:40;5.90;;;1.80;;
48993;SDS011;34804;49.214;12.276;2023-09-19T11:33:18;6.05;;;1.67;;
48993;SDS011;34804;49.214;12.276;2023-09-19T11:36:03;5.95;;;1.70;;
48993;SDS011;34804;49.214;12.276;2023-09-19T11:41:36;4.18;;;1.52;;
48993;SDS011;34804;49.214;12.276;2023-09-19T11:49:40;3.75;;;1.60;;
48993;SDS011;34804;49.214;12.276;2023-09-19T11:52:07;2.70;;;1.30;;
48993;SDS011;34804;49.214;12.276;2023-09-19T11:54:35;4.40;;;1.60;;
48993;SDS011;34804;49.214;12.276;2023-09-19T11:57:06;2.75;;;1.35;;
48993;SDS011;34804;49.214;12.276;2023-09-19T11:59:38;5.03;;;1.40;;
48993;SDS011;34804;49.214;12.276;2023-09-19T12:02:06;4.95;;;1.67;;
48993;SDS011;34804;49.214;12.276;2023-09-19T12:04:42;3.97;;;1.33;;
48993;SDS011;34804;49.214;12.276;2023-09-19T12:07:12;3.80;;;1.60;;
48993;SDS011;34804;49.214;12.276;2023-09-19T12:09:51;4.07;;;1.35;;
48993;SDS011;34804;49.214;12.276;2023-09-19T12:12:31;4.90;;;1.50;;
48993;SDS011;34804;49.214;12.276;2023-09-19T12:15:00;3.97;;;1.35;;
48993;SDS011;34804;49.214;12.276;2023-09-19T12:17:37;6.22;;;1.30;;
48993;SDS011;34804;49.214;12.276;2023-09-19T12:20:10;4.05;;;1.30;;
48993;SDS011;34804;49.214;12.276;2023-09-19T12:22:42;5.43;;;1.67;;
48993;SDS011;34804;49.214;12.276;2023-09-19T12:25:10;7.07;;;1.40;;
48993;SDS011;34804;49.214;12.276;2023-09-19T12:27:48;4.75;;;1.50;;
48993;SDS011;34804;49.214;12.276;2023-09-19T12:30:27;3.55;;;1.65;;
48993;SDS011;34804;49.214;12.276;2023-09-19T12:32:54;4.47;;;1.35;;
48993;SDS011;34804;49.214;12.276;2023-09-19T12:35:28;3.22;;;1.50;;
48993;SDS011;34804;49.214;12.276;2023-09-19T12:38:02;4.03;;;1.52;;
48993;SDS011;34804;49.214;12.276;2023-09-19T12:40:30;4.75;;;1.50;;
48993;SDS011;34804;49.214;12.276;2023-09-19T12:43:00;3.15;;;1.27;;
48993;SDS011;34804;49.214;12.276;2023-09-19T12:45:30;6.18;;;1.48;;
48993;SDS011;34804;49.214;12.276;2023-09-19T12:51:08;3.28;;;1.30;;
48993;SDS011;34804;49.214;12.276;2023-09-19T12:56:16;3.20;;;1.30;;
48993;SDS011;34804;49.214;12.276;2023-09-19T12:58:51;2.40;;;1.13;;
48993;SDS011;34804;49.214;12.276;2023-09-19T13:01:23;4.97;;;1.30;;
48993;SDS011;34804;49.214;12.276;2023-09-19T13:06:47;3.33;;;1.30;;
48993;SDS011;34804;49.214;12.276;2023-09-19T13:09:16;4.25;;;1.30;;
48993;SDS011;34804;49.214;12.276;2023-09-19T13:11:44;4.18;;;1.15;;
48993;SDS011;34804;49.214;12.276;2023-09-19T13:16:58;3.20;;;1.20;;
48993;SDS011;34804;49.214;12.276;2023-09-19T13:25:28;3.70;;;1.30;;
48993;SDS011;34804;49.214;12.276;2023-09-19T13:27:57;4.05;;;1.20;;
48993;SDS011;34804;49.214;12.276;2023-09-19T13:30:25;3.78;;;1.38;;
48993;SDS011;34804;49.214;12.276;2023-09-19T13:33:03;3.72;;;1.20;;
48993;SDS011;34804;49.214;12.276;2023-09-19T13:35:36;4.10;;;1.17;;
48993;SDS011;34804;49.214;12.276;2023-09-19T13:38:07;4.00;;;1.13;;
48993;SDS011;34804;49.214;12.276;2023-09-19T13:40:38;3.10;;;1.10;;
48993;SDS011;34804;49.214;12.276;2023-09-19T13:43:08;2.38;;;1.05;;
48993;SDS011;34804;49.214;12.276;2023-09-19T13:45:34;3.05;;;1.10;;
48993;SDS011;34804;49.214;12.276;2023-09-19T13:48:02;3.25;;;1.08;;
48993;SDS011;34804;49.214;12.276;2023-09-19T13:50:30;3.13;;;1.15;;
48993;SDS011;34804;49.214;12.276;2023-09-19T13:52:57;3.78;;;1.20;;
48993;SDS011;34804;49.214;12.276;2023-09-19T13:55:27;3.40;;;1.00;;
48993;SDS011;34804;49.214;12.276;2023-09-19T13:57:54;2.65;;;0.93;;
48993;SDS011;34804;49.214;12.276;2023-09-19T14:00:22;3.83;;;1.27;;
48993;SDS011;34804;49.214;12.276;2023-09-19T14:02:49;5.03;;;1.35;;
48993;SDS011;34804;49.214;12.276;2023-09-19T14:05:18;3.53;;;1.33;;
48993;SDS011;34804;49.214;12.276;2023-09-19T14:07:47;5.13;;;1.10;;
48993;SDS011;34804;49.214;12.276;2023-09-19T14:10:14;2.70;;;1.05;;
48993;SDS011;34804;49.214;12.276;2023-09-19T14:12:42;4.35;;;1.30;;
48993;SDS011;34804;49.214;12.276;2023-09-19T14:15:11;7.32;;;1.17;;
48993;SDS011;34804;49.214;12.276;2023-09-19T14:17:38;3.83;;;1.02;;
48993;SDS011;34804;49.214;12.276;2023-09-19T14:20:08;3.38;;;1.15;;
48993;SDS011;34804;49.214;12.276;2023-09-19T14:22:36;3.08;;;1.17;;
48993;SDS011;34804;49.214;12.276;2023-09-19T14:25:04;3.42;;;1.08;;
48993;SDS011;34804;49.214;12.276;2023-09-19T14:27:32;2.63;;;1.00;;
48993;SDS011;34804;49.214;12.276;2023-09-19T14:29:58;3.17;;;1.20;;
48993;SDS011;34804;49.214;12.276;2023-09-19T14:32:25;4.00;;;1.13;;
48993;SDS011;34804;49.214;12.276;2023-09-19T14:34:52;3.33;;;1.15;;
48993;SDS011;34804;49.214;12.276;2023-09-19T14:37:19;3.58;;;1.23;;
48993;SDS011;34804;49.214;12.276;2023-09-19T14:39:49;2.95;;;1.02;;
48993;SDS011;34804;49.214;12.276;2023-09-19T14:42:16;2.70;;;1.00;;
48993;SDS011;34804;49.214;12.276;2023-09-19T14:44:44;2.38;;;0.98;;
48993;SDS011;34804;49.214;12.276;2023-09-19T14:47:11;3.22;;;1.05;;
48993;SDS011;34804;49.214;12.276;2023-09-19T14:49:40;2.45;;;1.02;;
48993;SDS011;34804;49.214;12.276;2023-09-19T14:52:07;2.75;;;1.10;;
48993;SDS011;34804;49.214;12.276;2023-09-19T14:54:35;4.07;;;1.30;;
48993;SDS011;34804;49.214;12.276;2023-09-19T14:57:08;2.30;;;1.00;;
48993;SDS011;34804;49.214;12.276;2023-09-19T14:59:35;4.47;;;1.20;;
48993;SDS011;34804;49.214;12.276;2023-09-19T15:02:05;4.53;;;1.17;;
48993;SDS011;34804;49.214;12.276;2023-09-19T15:04:33;2.63;;;1.17;;
48993;SDS011;34804;49.214;12.276;2023-09-19T15:07:01;5.35;;;1.10;;
48993;SDS011;34804;49.214;12.276;2023-09-19T15:09:28;2.35;;;0.98;;
48993;SDS011;34804;49.214;12.276;2023-09-19T15:11:58;3.50;;;1.30;;
48993;SDS011;34804;49.214;12.276;2023-09-19T15:14:25;4.22;;;1.10;;
48993;SDS011;34804;49.214;12.276;2023-09-19T15:16:52;2.35;;;0.98;;
48993;SDS011;34804;49.214;12.276;2023-09-19T15:19:19;3.25;;;1.15;;
48993;SDS011;34804;49.214;12.276;2023-09-19T15:21:46;1.92;;;1.00;;
48993;SDS011;34804;49.214;12.276;2023-09-19T15:24:12;3.95;;;0.95;;
48993;SDS011;34804;49.214;12.276;2023-09-19T15:26:40;3.30;;;1.13;;
48993;SDS011;34804;49.214;12.276;2023-09-19T15:29:10;2.55;;;1.00;;
48993;SDS011;34804;49.214;12.276;2023-09-19T15:31:37;4.60;;;0.82;;
48993;SDS011;34804;49.214;12.276;2023-09-19T15:34:04;2.80;;;0.90;;
48993;SDS011;34804;49.214;12.276;2023-09-19T15:36:33;3.28;;;1.00;;
48993;SDS011;34804;49.214;12.276;2023-09-19T15:39:04;2.17;;;1.00;;
48993;SDS011;34804;49.214;12.276;2023-09-19T15:41:41;2.67;;;1.05;;
48993;SDS011;34804;49.214;12.276;2023-09-19T15:44:20;2.85;;;1.10;;
48993;SDS011;34804;49.214;12.276;2023-09-19T15:46:47;3.45;;;1.00;;
48993;SDS011;34804;49.214;12.276;2023-09-19T15:49:14;3.15;;;0.98;;
48993;SDS011;34804;49.214;12.276;2023-09-19T15:51:41;2.53;;;1.00;;
48993;SDS011;34804;49.214;12.276;2023-09-19T15:54:13;3.80;;;1.17;;
48993;SDS011;34804;49.214;12.276;2023-09-19T15:56:41;2.80;;;0.90;;
48993;SDS011;34804;49.214;12.276;2023-09-19T15:59:09;2.45;;;1.00;;
48993;SDS011;34804;49.214;12.276;2023-09-19T16:01:39;3.17;;;1.20;;